Corning, Iowa
Current Conditions -  °F | °C
As of 1:15 AM on Sunday 23 Nov 2014 (Local Time) from KCSQ Reporting Station
Haze Haze  
Wind Chill: 52°   Ceiling: 400
Heat Index: 52°   Visibility: 1.7mi
Dew Point: 52°   Wind: 15mph
Humidity: 100%   Direction: 190°S
Pressure: 29.61"   Gusts: NA
Location:  40.99°N, 94.74°W
Report Text: KCSQ 230715Z AUTO 19013KT 1 3/4SM BR OVC004 11/11 A2961 RMK AO2
Loading
Personal Weather Stations






























Interactive Weather Map New forecast layout! Learn more

10-Day Weather Forecast

Advertisements
Track Severe Weather on mobile